TimeAKDT,TemperatureF,Dew PointF,Humidity,Sea Level PressureIn,VisibilityMPH,Wind Direction,Wind SpeedMPH,Gust SpeedMPH,PrecipitationIn,Events,Conditions,WindDirDegrees,DateUTC
12:16 AM,53.6,50.0,88,29.77,10.0,Calm,Calm,-,N/A,,Overcast,0,2013-08-26 08:16:00
12:36 AM,53.6,51.8,94,29.77,10.0,Calm,Calm,-,N/A,,Overcast,0,2013-08-26 08:36:00
12:56 AM,53.6,51.8,94,29.77,10.0,ENE,5.8,-,0.01,,Overcast,70,2013-08-26 08:56:00
1:16 AM,53.6,51.8,94,29.77,10.0,ENE,5.8,-,0.02,,Overcast,60,2013-08-26 09:16:00
1:36 AM,53.6,51.8,94,29.77,9.0,East,3.5,-,0.04,,Overcast,90,2013-08-26 09:36:00
2:36 AM,53.6,51.8,94,29.78,7.0,Calm,Calm,-,N/A,,Overcast,0,2013-08-26 10:36:00
2:56 AM,53.6,51.8,94,29.78,10.0,Calm,Calm,-,N/A,,Mostly Cloudy,0,2013-08-26 10:56:00
3:36 AM,55.4,51.8,88,29.78,10.0,West,3.5,-,N/A,,Overcast,270,2013-08-26 11:36:00
3:56 AM,55.4,51.8,88,29.78,10.0,Calm,Calm,-,0.07,,Overcast,0,2013-08-26 11:56:00
4:56 AM,53.6,51.8,94,29.78,10.0,Calm,Calm,-,0.05,,Overcast,0,2013-08-26 12:56:00
5:16 AM,53.6,51.8,94,29.78,10.0,ENE,3.5,-,N/A,,Overcast,60,2013-08-26 13:16:00
6:20 AM,53.6,51.8,94,29.78,10.0,NNE,3.5,-,N/A,Fog-Rain,Light Rain,20,2013-08-26 14:20:00
6:36 AM,53.6,50.0,88,29.78,10.0,Calm,Calm,-,N/A,,Overcast,0,2013-08-26 14:36:00
7:16 AM,53.6,51.8,94,29.79,10.0,Calm,Calm,-,N/A,,Overcast,0,2013-08-26 15:16:00
7:36 AM,53.6,51.8,94,29.78,10.0,Calm,Calm,-,N/A,,Overcast,0,2013-08-26 15:36:00
8:16 AM,53.6,51.8,94,29.78,10.0,Calm,Calm,-,N/A,,Overcast,0,2013-08-26 16:16:00
8:36 AM,53.6,51.8,94,29.78,10.0,Calm,Calm,-,N/A,,Overcast,0,2013-08-26 16:36:00
8:56 AM,53.6,51.8,94,29.79,10.0,Calm,Calm,-,N/A,,Overcast,0,2013-08-26 16:56:00
9:56 AM,55.4,51.8,88,29.79,10.0,Calm,Calm,-,N/A,,Overcast,0,2013-08-26 17:56:00
10:36 AM,55.4,51.8,88,29.79,10.0,Calm,Calm,-,N/A,,Overcast,0,2013-08-26 18:36:00
11:16 AM,55.4,51.8,88,29.78,10.0,Calm,Calm,-,N/A,,Overcast,0,2013-08-26 19:16:00
11:36 AM,57.2,51.8,82,29.78,10.0,NE,3.5,-,N/A,,Overcast,40,2013-08-26 19:36:00
11:56 AM,59.0,53.6,82,29.78,10.0,Calm,Calm,-,N/A,,Overcast,0,2013-08-26 19:56:00
12:36 PM,59.0,53.6,82,29.77,10.0,NE,5.8,-,N/A,,Overcast,50,2013-08-26 20:36:00
12:56 PM,57.2,51.8,82,29.76,10.0,ENE,4.6,-,N/A,,Mostly Cloudy,60,2013-08-26 20:56:00
1:16 PM,60.8,53.6,77,29.75,10.0,East,3.5,-,N/A,,Overcast,90,2013-08-26 21:16:00
1:56 PM,62.6,51.8,68,29.75,10.0,Calm,Calm,-,N/A,,Overcast,0,2013-08-26 21:56:00
2:16 PM,62.6,51.8,68,29.74,10.0,Calm,Calm,-,N/A,,Overcast,0,2013-08-26 22:16:00
2:56 PM,64.4,51.8,64,29.74,10.0,NE,3.5,-,N/A,,Mostly Cloudy,50,2013-08-26 22:56:00
3:16 PM,64.4,51.8,64,29.73,10.0,ENE,3.5,-,N/A,,Mostly Cloudy,70,2013-08-26 23:16:00
3:56 PM,64.4,51.8,64,29.73,10.0,ENE,4.6,-,N/A,,Mostly Cloudy,60,2013-08-26 23:56:00
4:16 PM,62.6,50.0,63,29.72,10.0,NE,6.9,-,N/A,,Mostly Cloudy,50,2013-08-27 00:16:00
4:56 PM,59.0,50.0,72,29.72,10.0,East,4.6,-,N/A,,Mostly Cloudy,80,2013-08-27 00:56:00
5:16 PM,57.2,50.0,77,29.72,10.0,ENE,3.5,-,N/A,,Mostly Cloudy,70,2013-08-27 01:16:00
5:36 PM,59.0,50.0,72,29.71,10.0,ENE,4.6,-,N/A,,Mostly Cloudy,70,2013-08-27 01:36:00
6:16 PM,62.6,50.0,63,29.70,10.0,ENE,3.5,-,N/A,,Mostly Cloudy,70,2013-08-27 02:16:00
6:36 PM,62.6,50.0,63,29.69,10.0,ENE,5.8,-,N/A,,Mostly Cloudy,70,2013-08-27 02:36:00
7:36 PM,53.6,48.2,82,29.70,10.0,ENE,5.8,-,N/A,,Scattered Clouds,70,2013-08-27 03:36:00
7:56 PM,51.8,48.2,88,29.70,10.0,ENE,5.8,-,N/A,,Mostly Cloudy,60,2013-08-27 03:56:00
9:36 PM,-9999,-9999,N/A,29.69,10.0,SE,4.6,-,N/A,,Scattered Clouds,130,2013-08-27 05:36:00
10:16 PM,53.6,50.0,88,29.70,10.0,Calm,Calm,-,N/A,,Overcast,0,2013-08-27 06:16:00
10:36 PM,53.6,51.8,94,29.70,10.0,Calm,Calm,-,N/A,,Overcast,0,2013-08-27 06:36:00
10:56 PM,53.6,50.0,88,29.70,10.0,ENE,3.5,-,N/A,,Overcast,60,2013-08-27 06:56:00
11:16 PM,53.6,50.0,88,29.71,10.0,Calm,Calm,-,N/A,,Overcast,0,2013-08-27 07:16:00
11:36 PM,53.6,50.0,88,29.71,10.0,Calm,Calm,-,N/A,,Overcast,0,2013-08-27 07:36:00